sensor_id;sensor_type;location;lat;lon;timestamp;P1;durP1;ratioP1;P2;durP2;ratioP2
20713;SDS011;10518;50.742;4.226;2023-05-15T00:01:32;8.33;;;3.70;;
20713;SDS011;10518;50.742;4.226;2023-05-15T00:03:59;10.60;;;4.13;;
20713;SDS011;10518;50.742;4.226;2023-05-15T00:06:25;8.00;;;3.63;;
20713;SDS011;10518;50.742;4.226;2023-05-15T00:08:52;13.70;;;5.13;;
20713;SDS011;10518;50.742;4.226;2023-05-15T00:11:17;6.57;;;3.90;;
20713;SDS011;10518;50.742;4.226;2023-05-15T00:13:44;9.53;;;4.47;;
20713;SDS011;10518;50.742;4.226;2023-05-15T00:16:09;8.63;;;4.43;;
20713;SDS011;10518;50.742;4.226;2023-05-15T00:18:35;8.87;;;4.97;;
20713;SDS011;10518;50.742;4.226;2023-05-15T00:21:01;9.00;;;4.33;;
20713;SDS011;10518;50.742;4.226;2023-05-15T00:23:27;5.37;;;3.43;;
20713;SDS011;10518;50.742;4.226;2023-05-15T00:25:52;10.37;;;3.63;;
20713;SDS011;10518;50.742;4.226;2023-05-15T00:28:18;11.33;;;5.33;;
20713;SDS011;10518;50.742;4.226;2023-05-15T00:30:44;10.77;;;4.40;;
20713;SDS011;10518;50.742;4.226;2023-05-15T00:33:09;9.20;;;3.63;;
20713;SDS011;10518;50.742;4.226;2023-05-15T00:35:35;6.37;;;3.67;;
20713;SDS011;10518;50.742;4.226;2023-05-15T00:38:00;9.90;;;3.13;;
20713;SDS011;10518;50.742;4.226;2023-05-15T00:40:26;12.20;;;4.07;;
20713;SDS011;10518;50.742;4.226;2023-05-15T00:42:53;7.13;;;3.27;;
20713;SDS011;10518;50.742;4.226;2023-05-15T00:45:19;6.80;;;3.57;;
20713;SDS011;10518;50.742;4.226;2023-05-15T00:47:46;7.47;;;4.10;;
20713;SDS011;10518;50.742;4.226;2023-05-15T00:50:13;11.47;;;5.27;;
20713;SDS011;10518;50.742;4.226;2023-05-15T00:52:39;10.37;;;4.57;;
20713;SDS011;10518;50.742;4.226;2023-05-15T00:55:05;7.33;;;3.87;;
20713;SDS011;10518;50.742;4.226;2023-05-15T00:57:31;11.27;;;4.13;;
20713;SDS011;10518;50.742;4.226;2023-05-15T00:59:57;4.90;;;2.80;;
20713;SDS011;10518;50.742;4.226;2023-05-15T01:02:25;5.97;;;3.00;;
20713;SDS011;10518;50.742;4.226;2023-05-15T01:04:51;4.40;;;3.93;;
20713;SDS011;10518;50.742;4.226;2023-05-15T01:07:16;7.73;;;3.80;;
20713;SDS011;10518;50.742;4.226;2023-05-15T01:09:42;7.00;;;2.87;;
20713;SDS011;10518;50.742;4.226;2023-05-15T01:12:08;4.17;;;2.77;;
20713;SDS011;10518;50.742;4.226;2023-05-15T01:14:35;8.40;;;3.43;;
20713;SDS011;10518;50.742;4.226;2023-05-15T01:17:01;8.03;;;4.67;;
20713;SDS011;10518;50.742;4.226;2023-05-15T01:19:27;9.70;;;4.20;;
20713;SDS011;10518;50.742;4.226;2023-05-15T01:25:17;7.37;;;3.97;;
20713;SDS011;10518;50.742;4.226;2023-05-15T01:32:42;6.67;;;3.27;;
20713;SDS011;10518;50.742;4.226;2023-05-15T01:43:32;8.50;;;4.53;;
20713;SDS011;10518;50.742;4.226;2023-05-15T01:46:01;7.90;;;3.47;;
20713;SDS011;10518;50.742;4.226;2023-05-15T01:48:27;8.23;;;4.33;;
20713;SDS011;10518;50.742;4.226;2023-05-15T01:50:55;5.80;;;3.07;;
20713;SDS011;10518;50.742;4.226;2023-05-15T01:53:25;7.30;;;3.50;;
20713;SDS011;10518;50.742;4.226;2023-05-15T01:55:52;5.37;;;3.47;;
20713;SDS011;10518;50.742;4.226;2023-05-15T01:58:18;5.73;;;2.70;;
20713;SDS011;10518;50.742;4.226;2023-05-15T02:00:44;7.10;;;2.97;;
20713;SDS011;10518;50.742;4.226;2023-05-15T02:03:11;8.33;;;3.00;;
20713;SDS011;10518;50.742;4.226;2023-05-15T02:05:37;8.53;;;3.13;;
20713;SDS011;10518;50.742;4.226;2023-05-15T02:08:03;5.00;;;2.83;;
20713;SDS011;10518;50.742;4.226;2023-05-15T02:10:31;8.60;;;3.63;;
20713;SDS011;10518;50.742;4.226;2023-05-15T02:12:58;7.40;;;3.20;;
20713;SDS011;10518;50.742;4.226;2023-05-15T02:15:24;4.87;;;2.83;;
20713;SDS011;10518;50.742;4.226;2023-05-15T02:17:52;7.13;;;2.77;;
20713;SDS011;10518;50.742;4.226;2023-05-15T02:20:18;4.77;;;2.60;;
20713;SDS011;10518;50.742;4.226;2023-05-15T02:22:44;4.77;;;2.80;;
20713;SDS011;10518;50.742;4.226;2023-05-15T02:25:09;13.07;;;3.07;;
20713;SDS011;10518;50.742;4.226;2023-05-15T02:27:45;8.53;;;4.00;;
20713;SDS011;10518;50.742;4.226;2023-05-15T02:33:21;7.60;;;4.27;;
20713;SDS011;10518;50.742;4.226;2023-05-15T02:35:50;6.33;;;3.87;;
20713;SDS011;10518;50.742;4.226;2023-05-15T02:38:18;7.50;;;3.97;;
20713;SDS011;10518;50.742;4.226;2023-05-15T02:40:48;11.80;;;3.87;;
20713;SDS011;10518;50.742;4.226;2023-05-15T02:43:15;11.03;;;4.90;;
20713;SDS011;10518;50.742;4.226;2023-05-15T02:45:43;10.17;;;4.10;;
20713;SDS011;10518;50.742;4.226;2023-05-15T02:48:11;7.93;;;4.87;;
20713;SDS011;10518;50.742;4.226;2023-05-15T02:50:37;8.23;;;4.23;;
20713;SDS011;10518;50.742;4.226;2023-05-15T02:53:03;9.67;;;4.37;;
20713;SDS011;10518;50.742;4.226;2023-05-15T02:55:31;9.37;;;3.97;;
20713;SDS011;10518;50.742;4.226;2023-05-15T02:57:58;11.80;;;4.87;;
20713;SDS011;10518;50.742;4.226;2023-05-15T03:00:23;10.67;;;4.50;;
20713;SDS011;10518;50.742;4.226;2023-05-15T03:02:49;18.33;;;4.87;;
20713;SDS011;10518;50.742;4.226;2023-05-15T03:05:15;12.33;;;4.83;;
20713;SDS011;10518;50.742;4.226;2023-05-15T03:07:40;9.73;;;4.80;;
20713;SDS011;10518;50.742;4.226;2023-05-15T03:10:06;7.83;;;3.80;;
20713;SDS011;10518;50.742;4.226;2023-05-15T03:12:32;9.10;;;4.73;;
20713;SDS011;10518;50.742;4.226;2023-05-15T03:14:58;8.87;;;4.33;;
20713;SDS011;10518;50.742;4.226;2023-05-15T03:17:25;9.40;;;3.73;;
20713;SDS011;10518;50.742;4.226;2023-05-15T03:19:51;8.77;;;4.10;;
20713;SDS011;10518;50.742;4.226;2023-05-15T03:22:16;10.43;;;5.00;;
20713;SDS011;10518;50.742;4.226;2023-05-15T03:24:42;10.20;;;3.57;;
20713;SDS011;10518;50.742;4.226;2023-05-15T03:27:07;8.53;;;4.70;;
20713;SDS011;10518;50.742;4.226;2023-05-15T03:29:33;21.33;;;6.23;;
20713;SDS011;10518;50.742;4.226;2023-05-15T03:31:58;7.53;;;4.40;;
20713;SDS011;10518;50.742;4.226;2023-05-15T03:34:24;15.83;;;4.37;;
20713;SDS011;10518;50.742;4.226;2023-05-15T03:36:50;10.90;;;5.50;;
20713;SDS011;10518;50.742;4.226;2023-05-15T03:39:15;7.43;;;3.77;;
20713;SDS011;10518;50.742;4.226;2023-05-15T03:41:41;7.37;;;3.53;;
20713;SDS011;10518;50.742;4.226;2023-05-15T03:44:07;10.70;;;5.13;;
20713;SDS011;10518;50.742;4.226;2023-05-15T03:46:32;12.47;;;5.77;;
20713;SDS011;10518;50.742;4.226;2023-05-15T03:48:58;8.53;;;4.97;;
20713;SDS011;10518;50.742;4.226;2023-05-15T03:51:23;9.37;;;4.53;;
20713;SDS011;10518;50.742;4.226;2023-05-15T03:53:49;10.73;;;4.37;;
20713;SDS011;10518;50.742;4.226;2023-05-15T03:56:15;6.17;;;4.67;;
20713;SDS011;10518;50.742;4.226;2023-05-15T03:58:40;6.07;;;3.90;;
20713;SDS011;10518;50.742;4.226;2023-05-15T04:01:06;8.07;;;4.60;;
20713;SDS011;10518;50.742;4.226;2023-05-15T04:03:32;5.80;;;3.33;;
20713;SDS011;10518;50.742;4.226;2023-05-15T04:05:57;5.23;;;2.87;;
20713;SDS011;10518;50.742;4.226;2023-05-15T04:08:23;7.37;;;3.70;;
20713;SDS011;10518;50.742;4.226;2023-05-15T04:10:49;7.63;;;4.00;;
20713;SDS011;10518;50.742;4.226;2023-05-15T04:13:15;7.27;;;4.07;;
20713;SDS011;10518;50.742;4.226;2023-05-15T04:15:41;7.47;;;3.60;;
20713;SDS011;10518;50.742;4.226;2023-05-15T04:18:07;10.67;;;3.87;;
20713;SDS011;10518;50.742;4.226;2023-05-15T04:20:32;4.77;;;3.20;;
20713;SDS011;10518;50.742;4.226;2023-05-15T04:22:58;5.63;;;3.37;;
20713;SDS011;10518;50.742;4.226;2023-05-15T04:25:24;9.10;;;4.47;;
20713;SDS011;10518;50.742;4.226;2023-05-15T04:27:51;12.83;;;4.83;;
20713;SDS011;10518;50.742;4.226;2023-05-15T04:30:17;10.23;;;4.77;;
20713;SDS011;10518;50.742;4.226;2023-05-15T04:32:42;5.47;;;3.40;;
20713;SDS011;10518;50.742;4.226;2023-05-15T04:35:08;8.10;;;4.40;;
20713;SDS011;10518;50.742;4.226;2023-05-15T04:37:39;13.10;;;5.07;;
20713;SDS011;10518;50.742;4.226;2023-05-15T04:40:06;9.47;;;4.87;;
20713;SDS011;10518;50.742;4.226;2023-05-15T04:42:32;8.67;;;4.00;;
20713;SDS011;10518;50.742;4.226;2023-05-15T04:44:58;6.27;;;3.13;;
20713;SDS011;10518;50.742;4.226;2023-05-15T04:47:24;7.97;;;3.77;;
20713;SDS011;10518;50.742;4.226;2023-05-15T04:49:50;7.53;;;3.43;;
20713;SDS011;10518;50.742;4.226;2023-05-15T04:52:16;14.20;;;3.57;;
20713;SDS011;10518;50.742;4.226;2023-05-15T04:54:42;8.20;;;3.40;;
20713;SDS011;10518;50.742;4.226;2023-05-15T04:57:07;10.40;;;4.03;;
20713;SDS011;10518;50.742;4.226;2023-05-15T04:59:33;8.53;;;4.80;;
20713;SDS011;10518;50.742;4.226;2023-05-15T05:02:00;12.37;;;3.97;;
20713;SDS011;10518;50.742;4.226;2023-05-15T05:04:25;8.40;;;4.23;;
20713;SDS011;10518;50.742;4.226;2023-05-15T05:06:51;12.47;;;4.07;;
20713;SDS011;10518;50.742;4.226;2023-05-15T05:09:17;11.53;;;3.30;;
20713;SDS011;10518;50.742;4.226;2023-05-15T05:11:43;12.73;;;3.63;;
20713;SDS011;10518;50.742;4.226;2023-05-15T05:14:10;8.23;;;4.37;;
20713;SDS011;10518;50.742;4.226;2023-05-15T05:16:36;12.40;;;5.37;;
20713;SDS011;10518;50.742;4.226;2023-05-15T05:19:01;8.13;;;4.60;;
20713;SDS011;10518;50.742;4.226;2023-05-15T05:21:27;10.23;;;4.40;;
20713;SDS011;10518;50.742;4.226;2023-05-15T05:23:53;11.87;;;5.70;;
20713;SDS011;10518;50.742;4.226;2023-05-15T05:26:20;10.47;;;5.63;;
20713;SDS011;10518;50.742;4.226;2023-05-15T05:28:46;5.67;;;4.17;;
20713;SDS011;10518;50.742;4.226;2023-05-15T05:31:12;20.30;;;4.77;;
20713;SDS011;10518;50.742;4.226;2023-05-15T05:33:37;9.23;;;4.37;;
20713;SDS011;10518;50.742;4.226;2023-05-15T05:36:03;5.93;;;3.80;;
20713;SDS011;10518;50.742;4.226;2023-05-15T05:38:29;7.50;;;3.57;;
20713;SDS011;10518;50.742;4.226;2023-05-15T05:40:56;11.53;;;4.33;;
20713;SDS011;10518;50.742;4.226;2023-05-15T05:43:24;10.33;;;4.03;;
20713;SDS011;10518;50.742;4.226;2023-05-15T05:45:50;7.17;;;3.27;;
20713;SDS011;10518;50.742;4.226;2023-05-15T05:48:15;8.93;;;4.60;;
20713;SDS011;10518;50.742;4.226;2023-05-15T05:50:41;10.57;;;4.10;;
20713;SDS011;10518;50.742;4.226;2023-05-15T05:53:07;10.13;;;5.87;;
20713;SDS011;10518;50.742;4.226;2023-05-15T05:55:32;21.20;;;5.47;;
20713;SDS011;10518;50.742;4.226;2023-05-15T05:57:58;8.00;;;4.83;;
20713;SDS011;10518;50.742;4.226;2023-05-15T06:00:24;6.43;;;3.63;;
20713;SDS011;10518;50.742;4.226;2023-05-15T06:02:51;7.93;;;4.57;;
20713;SDS011;10518;50.742;4.226;2023-05-15T06:05:26;13.77;;;4.43;;
20713;SDS011;10518;50.742;4.226;2023-05-15T06:07:52;8.67;;;3.47;;
20713;SDS011;10518;50.742;4.226;2023-05-15T06:10:19;8.63;;;4.50;;
20713;SDS011;10518;50.742;4.226;2023-05-15T06:12:45;5.83;;;2.90;;
20713;SDS011;10518;50.742;4.226;2023-05-15T06:15:10;8.43;;;3.87;;
20713;SDS011;10518;50.742;4.226;2023-05-15T06:17:36;8.50;;;4.60;;
20713;SDS011;10518;50.742;4.226;2023-05-15T06:20:02;8.17;;;4.43;;
20713;SDS011;10518;50.742;4.226;2023-05-15T06:22:32;4.00;;;2.97;;
20713;SDS011;10518;50.742;4.226;2023-05-15T06:24:58;7.83;;;4.80;;
20713;SDS011;10518;50.742;4.226;2023-05-15T06:27:25;5.93;;;3.90;;
20713;SDS011;10518;50.742;4.226;2023-05-15T06:29:51;6.37;;;3.97;;
20713;SDS011;10518;50.742;4.226;2023-05-15T06:32:17;6.03;;;3.67;;
20713;SDS011;10518;50.742;4.226;2023-05-15T06:34:42;10.03;;;4.47;;
20713;SDS011;10518;50.742;4.226;2023-05-15T06:37:08;9.10;;;4.00;;
20713;SDS011;10518;50.742;4.226;2023-05-15T06:39:34;12.93;;;4.40;;
20713;SDS011;10518;50.742;4.226;2023-05-15T06:42:00;10.90;;;4.33;;
20713;SDS011;10518;50.742;4.226;2023-05-15T06:44:26;7.83;;;3.57;;
20713;SDS011;10518;50.742;4.226;2023-05-15T06:46:52;10.93;;;3.53;;
20713;SDS011;10518;50.742;4.226;2023-05-15T06:49:18;5.47;;;4.10;;
20713;SDS011;10518;50.742;4.226;2023-05-15T06:51:44;9.53;;;4.87;;
20713;SDS011;10518;50.742;4.226;2023-05-15T06:54:09;8.50;;;3.77;;
20713;SDS011;10518;50.742;4.226;2023-05-15T06:56:35;7.33;;;3.27;;
20713;SDS011;10518;50.742;4.226;2023-05-15T06:59:01;6.13;;;4.60;;
20713;SDS011;10518;50.742;4.226;2023-05-15T07:01:26;9.10;;;4.57;;
20713;SDS011;10518;50.742;4.226;2023-05-15T07:03:52;7.20;;;4.00;;
20713;SDS011;10518;50.742;4.226;2023-05-15T07:06:18;10.30;;;4.23;;
20713;SDS011;10518;50.742;4.226;2023-05-15T07:08:43;6.37;;;3.93;;
20713;SDS011;10518;50.742;4.226;2023-05-15T07:11:09;10.73;;;4.63;;
20713;SDS011;10518;50.742;4.226;2023-05-15T07:13:34;5.67;;;4.07;;
20713;SDS011;10518;50.742;4.226;2023-05-15T07:16:01;5.57;;;3.67;;
20713;SDS011;10518;50.742;4.226;2023-05-15T07:18:27;10.23;;;5.63;;
20713;SDS011;10518;50.742;4.226;2023-05-15T07:20:52;12.73;;;3.95;;
20713;SDS011;10518;50.742;4.226;2023-05-15T07:23:18;8.95;;;3.83;;
20713;SDS011;10518;50.742;4.226;2023-05-15T07:25:44;14.30;;;5.03;;
20713;SDS011;10518;50.742;4.226;2023-05-15T07:28:10;10.15;;;3.42;;
20713;SDS011;10518;50.742;4.226;2023-05-15T07:30:35;11.68;;;3.85;;
20713;SDS011;10518;50.742;4.226;2023-05-15T07:33:01;17.50;;;4.28;;
20713;SDS011;10518;50.742;4.226;2023-05-15T07:35:27;14.35;;;4.57;;
20713;SDS011;10518;50.742;4.226;2023-05-15T07:37:53;8.95;;;5.45;;
20713;SDS011;10518;50.742;4.226;2023-05-15T07:40:18;10.55;;;4.00;;
20713;SDS011;10518;50.742;4.226;2023-05-15T07:42:44;7.43;;;3.35;;
20713;SDS011;10518;50.742;4.226;2023-05-15T07:45:10;7.70;;;3.70;;
20713;SDS011;10518;50.742;4.226;2023-05-15T07:47:35;6.95;;;4.10;;
20713;SDS011;10518;50.742;4.226;2023-05-15T07:50:01;7.60;;;4.93;;
20713;SDS011;10518;50.742;4.226;2023-05-15T07:52:27;7.50;;;4.40;;
20713;SDS011;10518;50.742;4.226;2023-05-15T07:54:52;6.22;;;3.67;;
20713;SDS011;10518;50.742;4.226;2023-05-15T07:57:18;6.45;;;3.45;;
20713;SDS011;10518;50.742;4.226;2023-05-15T07:59:44;8.50;;;4.55;;
20713;SDS011;10518;50.742;4.226;2023-05-15T08:02:10;6.63;;;4.47;;
20713;SDS011;10518;50.742;4.226;2023-05-15T08:04:35;7.55;;;4.00;;
20713;SDS011;10518;50.742;4.226;2023-05-15T08:07:01;9.50;;;4.45;;
20713;SDS011;10518;50.742;4.226;2023-05-15T08:09:26;8.70;;;3.55;;
20713;SDS011;10518;50.742;4.226;2023-05-15T08:11:55;7.75;;;3.05;;
20713;SDS011;10518;50.742;4.226;2023-05-15T08:14:21;8.68;;;4.53;;
20713;SDS011;10518;50.742;4.226;2023-05-15T08:16:48;7.40;;;3.35;;
20713;SDS011;10518;50.742;4.226;2023-05-15T08:19:14;8.00;;;3.33;;
20713;SDS011;10518;50.742;4.226;2023-05-15T08:21:40;5.53;;;2.85;;
20713;SDS011;10518;50.742;4.226;2023-05-15T08:24:05;16.10;;;5.05;;
20713;SDS011;10518;50.742;4.226;2023-05-15T08:26:31;7.25;;;3.80;;
20713;SDS011;10518;50.742;4.226;2023-05-15T08:28:57;10.80;;;4.43;;
20713;SDS011;10518;50.742;4.226;2023-05-15T08:31:22;10.77;;;4.60;;
20713;SDS011;10518;50.742;4.226;2023-05-15T08:33:48;5.00;;;3.30;;
20713;SDS011;10518;50.742;4.226;2023-05-15T08:36:14;5.70;;;3.50;;
20713;SDS011;10518;50.742;4.226;2023-05-15T08:38:42;8.07;;;4.43;;
20713;SDS011;10518;50.742;4.226;2023-05-15T08:41:10;7.88;;;4.05;;
20713;SDS011;10518;50.742;4.226;2023-05-15T08:43:42;7.80;;;4.45;;
20713;SDS011;10518;50.742;4.226;2023-05-15T08:46:09;8.65;;;4.00;;
20713;SDS011;10518;50.742;4.226;2023-05-15T08:48:35;10.02;;;4.15;;
20713;SDS011;10518;50.742;4.226;2023-05-15T08:51:02;5.20;;;3.38;;
20713;SDS011;10518;50.742;4.226;2023-05-15T08:53:32;6.55;;;4.35;;
20713;SDS011;10518;50.742;4.226;2023-05-15T08:55:58;10.38;;;4.30;;
20713;SDS011;10518;50.742;4.226;2023-05-15T08:58:24;6.30;;;3.95;;
20713;SDS011;10518;50.742;4.226;2023-05-15T09:00:52;7.47;;;4.47;;
20713;SDS011;10518;50.742;4.226;2023-05-15T09:03:18;11.88;;;5.07;;
20713;SDS011;10518;50.742;4.226;2023-05-15T09:05:46;7.78;;;3.83;;
20713;SDS011;10518;50.742;4.226;2023-05-15T09:08:13;6.63;;;4.13;;
20713;SDS011;10518;50.742;4.226;2023-05-15T09:10:40;5.32;;;3.03;;
20713;SDS011;10518;50.742;4.226;2023-05-15T09:13:06;6.07;;;3.75;;
20713;SDS011;10518;50.742;4.226;2023-05-15T09:15:33;7.25;;;3.97;;
20713;SDS011;10518;50.742;4.226;2023-05-15T09:17:59;6.70;;;3.92;;
20713;SDS011;10518;50.742;4.226;2023-05-15T09:20:27;10.13;;;4.97;;
20713;SDS011;10518;50.742;4.226;2023-05-15T09:22:57;10.10;;;5.07;;
20713;SDS011;10518;50.742;4.226;2023-05-15T09:25:40;8.98;;;5.10;;
20713;SDS011;10518;50.742;4.226;2023-05-15T09:28:09;11.05;;;4.43;;
20713;SDS011;10518;50.742;4.226;2023-05-15T09:30:49;8.48;;;3.50;;
20713;SDS011;10518;50.742;4.226;2023-05-15T09:33:20;8.38;;;3.95;;
20713;SDS011;10518;50.742;4.226;2023-05-15T09:35:55;8.77;;;4.63;;
20713;SDS011;10518;50.742;4.226;2023-05-15T09:38:21;7.68;;;4.97;;
20713;SDS011;10518;50.742;4.226;2023-05-15T09:40:47;12.35;;;4.40;;
20713;SDS011;10518;50.742;4.226;2023-05-15T09:43:12;8.23;;;5.07;;
20713;SDS011;10518;50.742;4.226;2023-05-15T09:45:38;7.10;;;4.38;;
20713;SDS011;10518;50.742;4.226;2023-05-15T09:48:04;8.93;;;4.47;;
20713;SDS011;10518;50.742;4.226;2023-05-15T09:50:32;12.25;;;3.58;;
20713;SDS011;10518;50.742;4.226;2023-05-15T09:52:59;6.90;;;3.60;;
20713;SDS011;10518;50.742;4.226;2023-05-15T09:55:24;13.23;;;3.83;;
20713;SDS011;10518;50.742;4.226;2023-05-15T10:00:37;14.32;;;5.50;;
20713;SDS011;10518;50.742;4.226;2023-05-15T10:03:04;13.63;;;4.75;;
20713;SDS011;10518;50.742;4.226;2023-05-15T10:05:31;11.63;;;5.00;;
20713;SDS011;10518;50.742;4.226;2023-05-15T10:07:57;12.35;;;4.57;;
20713;SDS011;10518;50.742;4.226;2023-05-15T10:10:23;8.77;;;4.70;;
20713;SDS011;10518;50.742;4.226;2023-05-15T10:12:50;8.52;;;3.83;;
20713;SDS011;10518;50.742;4.226;2023-05-15T10:15:17;8.93;;;3.85;;
20713;SDS011;10518;50.742;4.226;2023-05-15T10:17:43;7.40;;;4.10;;
20713;SDS011;10518;50.742;4.226;2023-05-15T10:20:12;9.02;;;3.78;;
20713;SDS011;10518;50.742;4.226;2023-05-15T10:22:40;10.32;;;4.45;;
20713;SDS011;10518;50.742;4.226;2023-05-15T10:27:52;16.60;;;4.22;;
20713;SDS011;10518;50.742;4.226;2023-05-15T10:30:18;7.65;;;3.90;;
20713;SDS011;10518;50.742;4.226;2023-05-15T10:32:45;7.03;;;4.10;;
20713;SDS011;10518;50.742;4.226;2023-05-15T10:35:12;7.32;;;3.65;;
20713;SDS011;10518;50.742;4.226;2023-05-15T10:37:39;7.43;;;4.50;;
20713;SDS011;10518;50.742;4.226;2023-05-15T10:40:05;7.43;;;3.55;;
20713;SDS011;10518;50.742;4.226;2023-05-15T10:42:33;10.75;;;4.03;;
20713;SDS011;10518;50.742;4.226;2023-05-15T10:45:00;10.50;;;3.95;;
20713;SDS011;10518;50.742;4.226;2023-05-15T10:47:28;8.65;;;3.80;;
20713;SDS011;10518;50.742;4.226;2023-05-15T10:49:54;7.32;;;3.22;;
20713;SDS011;10518;50.742;4.226;2023-05-15T10:52:21;13.13;;;4.75;;
20713;SDS011;10518;50.742;4.226;2023-05-15T10:54:46;7.68;;;3.95;;
20713;SDS011;10518;50.742;4.226;2023-05-15T10:57:15;7.78;;;4.03;;
20713;SDS011;10518;50.742;4.226;2023-05-15T10:59:41;11.98;;;4.63;;
20713;SDS011;10518;50.742;4.226;2023-05-15T11:02:26;8.95;;;3.58;;
20713;SDS011;10518;50.742;4.226;2023-05-15T11:04:57;7.25;;;3.58;;
20713;SDS011;10518;50.742;4.226;2023-05-15T11:07:24;9.55;;;4.22;;
20713;SDS011;10518;50.742;4.226;2023-05-15T11:09:51;6.15;;;4.00;;
20713;SDS011;10518;50.742;4.226;2023-05-15T11:12:18;7.00;;;3.97;;
20713;SDS011;10518;50.742;4.226;2023-05-15T11:17:18;6.88;;;4.00;;
20713;SDS011;10518;50.742;4.226;2023-05-15T11:32:44;10.38;;;5.90;;
20713;SDS011;10518;50.742;4.226;2023-05-15T11:36:03;8.15;;;4.63;;
20713;SDS011;10518;50.742;4.226;2023-05-15T11:43:24;7.25;;;3.22;;
20713;SDS011;10518;50.742;4.226;2023-05-15T11:48:25;11.48;;;5.00;;
20713;SDS011;10518;50.742;4.226;2023-05-15T11:50:55;8.30;;;4.65;;
20713;SDS011;10518;50.742;4.226;2023-05-15T11:53:21;12.27;;;4.57;;
20713;SDS011;10518;50.742;4.226;2023-05-15T11:55:48;8.90;;;4.38;;
20713;SDS011;10518;50.742;4.226;2023-05-15T11:58:17;12.63;;;5.65;;
20713;SDS011;10518;50.742;4.226;2023-05-15T12:00:45;10.75;;;4.72;;
20713;SDS011;10518;50.742;4.226;2023-05-15T12:03:16;9.50;;;4.95;;
20713;SDS011;10518;50.742;4.226;2023-05-15T12:05:42;12.45;;;3.83;;
20713;SDS011;10518;50.742;4.226;2023-05-15T12:08:08;14.40;;;5.30;;
20713;SDS011;10518;50.742;4.226;2023-05-15T12:10:38;13.35;;;6.20;;
20713;SDS011;10518;50.742;4.226;2023-05-15T12:13:05;15.15;;;5.10;;
20713;SDS011;10518;50.742;4.226;2023-05-15T12:15:31;14.82;;;5.47;;
20713;SDS011;10518;50.742;4.226;2023-05-15T12:18:02;12.18;;;5.00;;
20713;SDS011;10518;50.742;4.226;2023-05-15T12:20:28;8.27;;;4.63;;
20713;SDS011;10518;50.742;4.226;2023-05-15T12:22:56;9.32;;;3.88;;
20713;SDS011;10518;50.742;4.226;2023-05-15T12:25:22;12.77;;;5.22;;
20713;SDS011;10518;50.742;4.226;2023-05-15T12:27:48;11.90;;;4.90;;
20713;SDS011;10518;50.742;4.226;2023-05-15T12:30:14;10.18;;;3.90;;
20713;SDS011;10518;50.742;4.226;2023-05-15T12:32:40;11.05;;;5.18;;
20713;SDS011;10518;50.742;4.226;2023-05-15T12:35:06;6.68;;;3.78;;
20713;SDS011;10518;50.742;4.226;2023-05-15T12:37:34;10.05;;;4.05;;
20713;SDS011;10518;50.742;4.226;2023-05-15T12:40:03;6.15;;;3.15;;
20713;SDS011;10518;50.742;4.226;2023-05-15T12:42:38;5.47;;;2.97;;
20713;SDS011;10518;50.742;4.226;2023-05-15T12:45:17;4.38;;;3.25;;
20713;SDS011;10518;50.742;4.226;2023-05-15T12:47:44;7.60;;;4.47;;
20713;SDS011;10518;50.742;4.226;2023-05-15T12:50:18;6.45;;;3.25;;
20713;SDS011;10518;50.742;4.226;2023-05-15T12:55:15;3.65;;;2.38;;
20713;SDS011;10518;50.742;4.226;2023-05-15T12:57:42;4.60;;;2.53;;
20713;SDS011;10518;50.742;4.226;2023-05-15T13:00:11;3.70;;;1.63;;
20713;SDS011;10518;50.742;4.226;2023-05-15T13:02:38;3.58;;;1.60;;
20713;SDS011;10518;50.742;4.226;2023-05-15T13:05:07;5.63;;;2.33;;
20713;SDS011;10518;50.742;4.226;2023-05-15T13:07:33;4.63;;;2.20;;
20713;SDS011;10518;50.742;4.226;2023-05-15T13:10:05;5.93;;;2.38;;
20713;SDS011;10518;50.742;4.226;2023-05-15T13:12:39;3.15;;;2.28;;
20713;SDS011;10518;50.742;4.226;2023-05-15T13:15:19;3.65;;;2.05;;
20713;SDS011;10518;50.742;4.226;2023-05-15T13:18:09;2.65;;;1.77;;
20713;SDS011;10518;50.742;4.226;2023-05-15T13:20:43;2.70;;;1.55;;
20713;SDS011;10518;50.742;4.226;2023-05-15T13:23:10;1.45;;;1.02;;
20713;SDS011;10518;50.742;4.226;2023-05-15T13:25:39;0.95;;;0.82;;
20713;SDS011;10518;50.742;4.226;2023-05-15T13:28:05;0.73;;;0.57;;
20713;SDS011;10518;50.742;4.226;2023-05-15T13:30:32;2.25;;;1.25;;
20713;SDS011;10518;50.742;4.226;2023-05-15T13:32:59;0.60;;;0.60;;
20713;SDS011;10518;50.742;4.226;2023-05-15T13:35:25;1.35;;;0.90;;
20713;SDS011;10518;50.742;4.226;2023-05-15T13:37:51;0.63;;;0.63;;
20713;SDS011;10518;50.742;4.226;2023-05-15T13:40:16;1.92;;;0.73;;
20713;SDS011;10518;50.742;4.226;2023-05-15T13:42:42;0.63;;;0.63;;
20713;SDS011;10518;50.742;4.226;2023-05-15T13:45:09;0.63;;;0.63;;
20713;SDS011;10518;50.742;4.226;2023-05-15T13:47:38;3.35;;;0.73;;
20713;SDS011;10518;50.742;4.226;2023-05-15T13:50:04;0.40;;;0.40;;
20713;SDS011;10518;50.742;4.226;2023-05-15T13:52:31;0.47;;;0.47;;
20713;SDS011;10518;50.742;4.226;2023-05-15T13:54:56;0.55;;;0.55;;
20713;SDS011;10518;50.742;4.226;2023-05-15T13:57:22;0.65;;;0.65;;
20713;SDS011;10518;50.742;4.226;2023-05-15T13:59:48;0.80;;;0.80;;
20713;SDS011;10518;50.742;4.226;2023-05-15T14:02:13;0.95;;;0.90;;
20713;SDS011;10518;50.742;4.226;2023-05-15T14:04:39;1.20;;;0.70;;
20713;SDS011;10518;50.742;4.226;2023-05-15T14:07:05;0.98;;;0.80;;
20713;SDS011;10518;50.742;4.226;2023-05-15T14:09:30;1.65;;;1.40;;
20713;SDS011;10518;50.742;4.226;2023-05-15T14:11:56;0.60;;;0.60;;
20713;SDS011;10518;50.742;4.226;2023-05-15T14:14:22;2.08;;;1.08;;
20713;SDS011;10518;50.742;4.226;2023-05-15T14:16:47;0.88;;;0.77;;
20713;SDS011;10518;50.742;4.226;2023-05-15T14:19:13;0.85;;;0.77;;
20713;SDS011;10518;50.742;4.226;2023-05-15T14:21:39;1.80;;;0.93;;
20713;SDS011;10518;50.742;4.226;2023-05-15T14:24:05;1.02;;;0.98;;
20713;SDS011;10518;50.742;4.226;2023-05-15T14:26:31;2.75;;;1.00;;
20713;SDS011;10518;50.742;4.226;2023-05-15T14:28:57;0.98;;;0.95;;
20713;SDS011;10518;50.742;4.226;2023-05-15T14:31:23;1.13;;;1.00;;
20713;SDS011;10518;50.742;4.226;2023-05-15T14:33:49;0.55;;;0.55;;
20713;SDS011;10518;50.742;4.226;2023-05-15T14:36:15;1.10;;;0.88;;
20713;SDS011;10518;50.742;4.226;2023-05-15T14:38:41;0.60;;;0.60;;
20713;SDS011;10518;50.742;4.226;2023-05-15T14:41:09;0.50;;;0.50;;
20713;SDS011;10518;50.742;4.226;2023-05-15T14:43:35;0.77;;;0.77;;
20713;SDS011;10518;50.742;4.226;2023-05-15T14:46:01;1.85;;;0.52;;
20713;SDS011;10518;50.742;4.226;2023-05-15T14:48:27;0.68;;;0.68;;
20713;SDS011;10518;50.742;4.226;2023-05-15T14:50:53;0.73;;;0.73;;
20713;SDS011;10518;50.742;4.226;2023-05-15T14:53:20;2.88;;;0.90;;
20713;SDS011;10518;50.742;4.226;2023-05-15T14:55:45;0.70;;;0.70;;
20713;SDS011;10518;50.742;4.226;2023-05-15T14:58:11;0.90;;;0.90;;
20713;SDS011;10518;50.742;4.226;2023-05-15T15:00:36;3.33;;;1.95;;
20713;SDS011;10518;50.742;4.226;2023-05-15T15:03:02;2.28;;;1.17;;
20713;SDS011;10518;50.742;4.226;2023-05-15T15:05:28;0.93;;;0.88;;
20713;SDS011;10518;50.742;4.226;2023-05-15T15:10:40;0.77;;;0.77;;
20713;SDS011;10518;50.742;4.226;2023-05-15T15:13:07;0.60;;;0.60;;
20713;SDS011;10518;50.742;4.226;2023-05-15T15:15:34;1.40;;;0.90;;
20713;SDS011;10518;50.742;4.226;2023-05-15T15:18:00;0.95;;;0.85;;
20713;SDS011;10518;50.742;4.226;2023-05-15T15:20:26;0.77;;;0.77;;
20713;SDS011;10518;50.742;4.226;2023-05-15T15:22:52;0.93;;;0.80;;
20713;SDS011;10518;50.742;4.226;2023-05-15T15:25:19;1.23;;;1.13;;
20713;SDS011;10518;50.742;4.226;2023-05-15T15:27:45;1.25;;;1.15;;
20713;SDS011;10518;50.742;4.226;2023-05-15T15:30:12;6.30;;;2.20;;
20713;SDS011;10518;50.742;4.226;2023-05-15T15:32:38;0.93;;;0.80;;
20713;SDS011;10518;50.742;4.226;2023-05-15T15:35:05;1.10;;;0.98;;